Time;durP1;ratioP1;P1;durP2;ratioP2;P2;SDS_P1;SDS_P2;PMS_P1;PMS_P2;Temp;Humidity;BMP_temperature;BMP_pressure;BME280_temperature;BME280_humidity;BME280_pressure;Samples;Min_cycle;Max_cycle;Signal;HPM_P1;HPM_P2
2021/09/12 00:02:02;;;;;;;52.17;31.47;;;17.30;99.90;;;;;;5072325;28;20209;-62
2021/09/12 00:04:29;;;;;;;51.17;32.53;;;17.30;99.90;;;;;;5071939;28;20225;-62
2021/09/12 00:06:56;;;;;;;54.97;32.23;;;17.30;99.90;;;;;;5072503;28;20262;-62
2021/09/12 00:09:23;;;;;;;54.07;32.13;;;17.30;99.90;;;;;;5072372;28;20251;-61
2021/09/12 00:11:50;;;;;;;54.77;32.17;;;17.30;99.90;;;;;;5072421;28;20243;-62
2021/09/12 00:14:18;;;;;;;57.50;33.20;;;17.30;99.90;;;;;;5071977;28;20224;-62
2021/09/12 00:16:44;;;;;;;54.93;31.07;;;17.30;99.90;;;;;;5072206;28;20258;-62
2021/09/12 00:19:11;;;;;;;59.27;33.47;;;17.30;99.90;;;;;;5071618;28;20213;-62
2021/09/12 00:21:38;;;;;;;55.30;32.13;;;17.20;99.90;;;;;;5072322;28;20204;-62
2021/09/12 00:24:04;;;;;;;58.07;31.60;;;17.20;99.90;;;;;;5071867;28;20258;-62
2021/09/12 00:26:31;;;;;;;56.43;31.53;;;17.20;99.90;;;;;;5072040;28;20278;-61
2021/09/12 00:28:58;;;;;;;54.30;30.93;;;17.20;99.90;;;;;;5071880;28;20262;-62
2021/09/12 00:31:27;;;;;;;52.73;30.87;;;17.20;99.90;;;;;;5072059;28;20205;-62
2021/09/12 00:33:53;;;;;;;50.63;29.80;;;17.30;99.90;;;;;;5071621;28;20274;-63
2021/09/12 00:36:20;;;;;;;50.60;28.80;;;17.20;99.90;;;;;;5071924;28;20254;-63
2021/09/12 00:38:47;;;;;;;50.43;28.47;;;17.20;99.90;;;;;;5072135;28;20209;-62
2021/09/12 00:41:13;;;;;;;48.47;29.57;;;17.20;99.90;;;;;;5072057;28;20241;-62
2021/09/12 00:43:40;;;;;;;52.40;28.87;;;17.20;99.90;;;;;;5071854;28;20229;-62
2021/09/12 00:46:07;;;;;;;48.03;28.20;;;17.20;99.90;;;;;;5071723;28;20274;-62
2021/09/12 00:48:36;;;;;;;45.63;27.30;;;17.20;99.90;;;;;;5072095;28;20208;-62
2021/09/12 00:51:04;;;;;;;46.67;28.23;;;17.20;99.90;;;;;;5072054;28;20232;-62
2021/09/12 00:53:33;;;;;;;41.67;26.83;;;17.10;99.90;;;;;;5071764;28;20785;-62
2021/09/12 00:56:02;;;;;;;48.67;27.13;;;17.20;99.90;;;;;;5071471;28;20262;-60
2021/09/12 00:58:29;;;;;;;44.43;26.43;;;17.20;99.90;;;;;;5072036;28;20204;-62
2021/09/12 01:00:56;;;;;;;42.57;26.10;;;17.20;99.90;;;;;;5071713;28;20580;-62
2021/09/12 01:03:23;;;;;;;41.80;25.40;;;17.20;99.90;;;;;;5071897;28;20209;-62
2021/09/12 01:05:51;;;;;;;40.73;23.77;;;17.10;99.90;;;;;;5071954;28;20229;-62
2021/09/12 01:08:19;;;;;;;36.60;22.83;;;17.10;99.90;;;;;;5071787;28;20205;-61
2021/09/12 01:10:49;;;;;;;38.73;24.87;;;17.10;99.90;;;;;;5071591;28;20204;-61
2021/09/12 01:13:15;;;;;;;39.60;23.60;;;17.10;99.90;;;;;;5071520;28;20299;-62
2021/09/12 01:15:42;;;;;;;41.23;24.17;;;17.10;99.90;;;;;;5071542;28;20278;-62
2021/09/12 01:18:09;;;;;;;42.90;23.90;;;17.10;99.90;;;;;;5071640;28;20263;-60
2021/09/12 01:20:35;;;;;;;36.63;23.00;;;17.10;99.90;;;;;;5071840;28;20259;-61
2021/09/12 01:23:06;;;;;;;40.03;23.13;;;17.00;99.90;;;;;;5071703;28;20259;-63
2021/09/12 01:25:35;;;;;;;43.13;23.00;;;17.00;99.90;;;;;;5071211;28;20221;-62
2021/09/12 01:28:03;;;;;;;39.50;23.00;;;17.00;99.90;;;;;;5071347;28;20242;-62
2021/09/12 01:30:30;;;;;;;44.07;23.07;;;17.00;99.90;;;;;;5071391;28;20747;-62
2021/09/12 01:32:56;;;;;;;41.50;23.17;;;16.90;99.90;;;;;;5074802;28;20242;-62
2021/09/12 01:35:23;;;;;;;39.50;23.13;;;16.90;99.90;;;;;;5074892;28;20713;-62
2021/09/12 01:37:49;;;;;;;45.23;24.43;;;16.90;99.90;;;;;;5075095;28;20255;-62
2021/09/12 01:40:16;;;;;;;51.00;25.50;;;16.80;99.90;;;;;;5074906;28;20201;-60
2021/09/12 01:42:44;;;;;;;45.07;25.43;;;16.80;99.90;;;;;;5074896;28;20262;-62
2021/09/12 01:45:11;;;;;;;46.17;23.23;;;16.70;99.90;;;;;;5074590;28;20721;-62
2021/09/12 01:47:38;;;;;;;41.43;24.03;;;16.80;99.90;;;;;;5075076;28;20209;-63
2021/09/12 01:50:06;;;;;;;39.77;23.87;;;16.80;99.90;;;;;;5074842;28;20235;-62
2021/09/12 01:52:32;;;;;;;43.03;23.37;;;16.80;99.90;;;;;;5074978;28;20255;-63
2021/09/12 01:54:59;;;;;;;41.43;22.43;;;16.70;99.90;;;;;;5074453;28;20279;-62
2021/09/12 01:57:26;;;;;;;41.40;22.60;;;16.70;99.90;;;;;;5074746;28;20251;-62
2021/09/12 01:59:54;;;;;;;42.47;22.97;;;16.70;99.90;;;;;;5074830;28;20205;-62
2021/09/12 02:02:20;;;;;;;45.17;23.70;;;16.60;99.90;;;;;;5074904;28;20217;-62
2021/09/12 02:04:47;;;;;;;49.83;24.30;;;16.60;99.90;;;;;;5074539;28;20282;-61
2021/09/12 02:07:13;;;;;;;41.33;22.40;;;16.60;99.90;;;;;;5074442;28;20225;-63
2021/09/12 02:09:40;;;;;;;45.03;23.50;;;16.60;99.90;;;;;;5074375;28;20201;-62
2021/09/12 02:12:07;;;;;;;41.87;21.73;;;16.60;99.90;;;;;;5074571;28;20739;-62
2021/09/12 02:14:34;;;;;;;42.87;21.80;;;16.60;99.90;;;;;;5074487;28;20225;-61
2021/09/12 02:17:02;;;;;;;39.73;21.63;;;16.60;99.90;;;;;;5074426;28;20201;-62
2021/09/12 02:19:29;;;;;;;39.07;21.67;;;16.70;99.90;;;;;;5074638;28;20209;-61
2021/09/12 02:21:55;;;;;;;37.57;20.67;;;16.70;99.90;;;;;;5074396;28;20205;-63
2021/09/12 02:24:22;;;;;;;37.63;21.40;;;16.70;99.90;;;;;;5073878;28;20282;-59
2021/09/12 02:26:48;;;;;;;38.37;20.47;;;16.60;99.90;;;;;;5074343;28;20288;-61
2021/09/12 02:29:15;;;;;;;39.67;21.47;;;16.70;99.90;;;;;;5074340;28;20235;-61
2021/09/12 02:31:42;;;;;;;40.13;22.07;;;16.60;99.90;;;;;;5074235;28;20250;-62
2021/09/12 02:34:10;;;;;;;37.80;21.33;;;16.60;99.90;;;;;;5073851;28;20650;-62
2021/09/12 02:36:36;;;;;;;37.73;20.77;;;16.50;99.90;;;;;;5073984;28;20259;-61
2021/09/12 02:39:04;;;;;;;37.83;20.27;;;16.50;99.10;;;;;;5073965;28;20234;-62
2021/09/12 02:41:30;;;;;;;37.43;19.63;;;16.50;89.30;;;;;;5074165;28;20622;-62
2021/09/12 02:43:57;;;;;;;38.63;20.30;;;16.50;80.00;;;;;;5073350;28;20645;-63
2021/09/12 02:46:24;;;;;;;39.67;20.67;;;16.50;67.50;;;;;;5073987;28;20224;-62
2021/09/12 02:48:50;;;;;;;42.40;20.40;;;16.50;57.10;;;;;;5073732;28;20213;-62
2021/09/12 02:51:18;;;;;;;35.37;19.03;;;16.40;54.70;;;;;;5073713;28;20282;-62
2021/09/12 02:53:45;;;;;;;36.93;20.67;;;16.40;47.80;;;;;;5073565;28;20278;-62
2021/09/12 02:56:11;;;;;;;45.37;21.37;;;16.40;47.80;;;;;;5073711;28;20254;-62
2021/09/12 02:58:38;;;;;;;49.47;22.60;;;16.30;44.70;;;;;;5073709;28;20251;-63
2021/09/12 03:01:04;;;;;;;50.53;24.70;;;16.30;49.90;;;;;;5073572;28;20213;-62
2021/09/12 03:03:31;;;;;;;45.73;23.47;;;16.20;75.30;;;;;;5073276;28;20209;-62
2021/09/12 03:05:58;;;;;;;53.00;24.40;;;16.20;98.70;;;;;;5073233;28;20269;-62
2021/09/12 03:08:26;;;;;;;46.83;23.37;;;16.20;99.90;;;;;;5073328;28;20665;-63
2021/09/12 03:10:53;;;;;;;55.07;25.50;;;16.20;99.90;;;;;;5073234;28;20205;-63
2021/09/12 03:13:19;;;;;;;54.17;25.60;;;16.30;99.90;;;;;;5073456;28;20209;-62
2021/09/12 03:15:46;;;;;;;49.17;23.77;;;16.30;99.90;;;;;;5073258;28;20204;-62
2021/09/12 03:18:13;;;;;;;56.17;26.43;;;16.30;99.90;;;;;;5073214;28;20626;-63
2021/09/12 03:20:40;;;;;;;47.03;23.63;;;16.30;99.90;;;;;;5072989;28;20209;-62
2021/09/12 03:23:07;;;;;;;48.50;23.20;;;16.30;99.90;;;;;;5073284;28;20254;-62
2021/09/12 03:25:35;;;;;;;46.10;23.10;;;16.30;99.90;;;;;;5072931;28;20225;-62
2021/09/12 03:28:01;;;;;;;46.80;22.37;;;16.40;99.90;;;;;;5073052;28;20256;-60
2021/09/12 03:30:28;;;;;;;46.87;23.43;;;16.40;99.90;;;;;;5073050;28;20209;-61
2021/09/12 03:32:55;;;;;;;48.53;23.57;;;16.30;99.90;;;;;;5072815;28;20274;-63
2021/09/12 03:35:21;;;;;;;45.73;23.27;;;16.40;99.90;;;;;;5072634;28;20244;-61
2021/09/12 03:37:48;;;;;;;47.50;23.00;;;16.40;99.90;;;;;;5072916;28;20254;-62
2021/09/12 03:40:15;;;;;;;52.07;23.77;;;16.30;99.90;;;;;;5072863;28;20209;-62
2021/09/12 03:42:43;;;;;;;48.00;22.50;;;16.30;99.90;;;;;;5073102;28;20582;-62
2021/09/12 03:45:10;;;;;;;53.33;24.33;;;16.30;99.90;;;;;;5072555;28;20408;-61
2021/09/12 03:47:37;;;;;;;59.47;25.13;;;16.30;99.90;;;;;;5072368;28;20275;-61
2021/09/12 03:50:04;;;;;;;50.70;25.10;;;16.30;99.90;;;;;;5072726;28;20292;-62
2021/09/12 03:52:31;;;;;;;52.40;25.27;;;16.30;99.90;;;;;;5072747;28;20220;-62
2021/09/12 03:54:58;;;;;;;54.37;24.63;;;16.30;99.90;;;;;;5071666;28;20224;-60
2021/09/12 03:57:24;;;;;;;44.93;24.17;;;16.30;99.90;;;;;;5072765;28;20205;-60
2021/09/12 03:59:53;;;;;;;49.57;24.97;;;16.30;99.90;;;;;;5072316;28;20666;-59
2021/09/12 04:02:19;;;;;;;49.13;25.23;;;16.30;99.90;;;;;;5072284;28;20212;-62
2021/09/12 04:04:46;;;;;;;47.53;24.13;;;16.30;99.90;;;;;;5071985;28;20705;-61
2021/09/12 04:07:13;;;;;;;52.07;24.13;;;16.30;99.90;;;;;;5072218;28;20713;-61
2021/09/12 04:09:39;;;;;;;51.53;24.40;;;16.20;99.90;;;;;;5072282;28;20209;-61
2021/09/12 04:12:07;;;;;;;48.13;24.50;;;16.10;99.90;;;;;;5072522;28;20270;-62
2021/09/12 04:14:33;;;;;;;44.47;24.03;;;16.20;99.90;;;;;;5071861;28;20270;-61
2021/09/12 04:17:01;;;;;;;45.50;24.07;;;16.10;99.90;;;;;;5072074;28;20209;-62
2021/09/12 04:19:28;;;;;;;38.97;22.33;;;16.10;99.90;;;;;;5072222;28;20204;-62
2021/09/12 04:21:54;;;;;;;38.40;21.10;;;16.10;99.90;;;;;;5072264;28;20258;-62
2021/09/12 04:24:21;;;;;;;41.20;21.83;;;16.10;99.90;;;;;;5072049;28;20225;-62
2021/09/12 04:26:48;;;;;;;34.80;21.17;;;16.10;99.90;;;;;;5071940;28;20217;-62
2021/09/12 04:29:15;;;;;;;37.77;19.57;;;16.00;99.90;;;;;;5071900;28;20205;-62
2021/09/12 04:31:41;;;;;;;34.17;19.60;;;16.00;99.90;;;;;;5072183;28;20216;-61
2021/09/12 04:34:09;;;;;;;38.03;20.23;;;15.90;99.90;;;;;;5071649;28;20601;-63
2021/09/12 04:36:36;;;;;;;41.67;18.67;;;15.90;99.90;;;;;;5071894;28;20212;-62
2021/09/12 04:39:03;;;;;;;34.27;18.83;;;15.90;97.00;;;;;;5071984;28;20205;-62
2021/09/12 04:41:30;;;;;;;36.77;18.97;;;15.80;74.70;;;;;;5071832;28;20262;-63
2021/09/12 04:43:56;;;;;;;31.27;17.63;;;15.80;70.10;;;;;;5071617;28;20228;-63
2021/09/12 04:46:23;;;;;;;27.70;16.70;;;15.80;50.50;;;;;;5071932;28;20365;-62
2021/09/12 04:48:50;;;;;;;35.93;16.67;;;15.70;34.80;;;;;;5072072;28;20205;-62
2021/09/12 04:51:17;;;;;;;34.07;18.80;;;15.70;21.70;;;;;;5072240;28;20209;-62
2021/09/12 04:53:44;;;;;;;33.60;17.90;;;15.70;11.00;;;;;;5071758;28;20294;-62
2021/09/12 04:56:11;;;;;;;32.93;18.37;;;15.60;5.90;;;;;;5071915;28;20217;-63
2021/09/12 04:58:37;;;;;;;33.23;17.53;;;15.60;7.40;;;;;;5071691;28;20713;-62
2021/09/12 05:01:04;;;;;;;34.20;17.53;;;15.60;7.50;;;;;;5072015;28;20201;-62
2021/09/12 05:03:31;;;;;;;31.17;17.23;;;15.60;1.00;;;;;;5071594;28;20258;-62
2021/09/12 05:05:57;;;;;;;30.97;18.00;;;15.60;1.00;;;;;;5073707;28;20205;-61
2021/09/12 05:08:25;;;;;;;29.70;17.47;;;15.60;1.00;;;;;;5075663;28;20250;-60
2021/09/12 05:10:52;;;;;;;25.23;16.17;;;15.60;1.00;;;;;;5075517;28;20205;-62
2021/09/12 05:13:19;;;;;;;29.83;17.53;;;15.60;1.00;;;;;;5075779;28;20216;-62
2021/09/12 05:15:45;;;;;;;30.07;16.40;;;15.60;1.00;;;;;;5075644;28;20208;-62
2021/09/12 05:18:13;;;;;;;34.90;16.30;;;15.60;2.00;;;;;;5075626;28;20333;-61
2021/09/12 05:20:40;;;;;;;24.47;13.90;;;15.60;1.00;;;;;;5075365;28;20208;-62
2021/09/12 05:23:07;;;;;;;25.63;15.50;;;15.50;1.00;;;;;;5075425;28;20201;-61
2021/09/12 05:25:35;;;;;;;27.17;14.73;;;15.50;1.00;;;;;;5074936;28;20278;-61
2021/09/12 05:28:02;;;;;;;19.87;12.83;;;15.50;1.00;;;;;;5075747;28;20220;-62
2021/09/12 05:30:29;;;;;;;23.37;13.63;;;15.50;1.00;;;;;;5075488;28;20216;-62
2021/09/12 05:32:56;;;;;;;20.93;12.70;;;15.40;1.00;;;;;;5075345;28;20223;-62
2021/09/12 05:35:22;;;;;;;22.00;11.90;;;15.40;1.00;;;;;;5074972;28;20241;-62
2021/09/12 05:37:49;;;;;;;22.67;12.53;;;15.40;1.00;;;;;;5075521;28;20201;-62
2021/09/12 05:40:16;;;;;;;21.53;11.90;;;15.40;1.00;;;;;;5074924;28;20209;-62
2021/09/12 05:42:45;;;;;;;18.73;11.30;;;15.40;1.00;;;;;;5075299;28;20208;-62
2021/09/12 05:45:12;;;;;;;20.63;12.03;;;15.40;1.00;;;;;;5074976;28;20282;-62
2021/09/12 05:47:39;;;;;;;17.70;11.17;;;15.30;99.90;;;;;;5074893;28;20298;-62
2021/09/12 05:50:07;;;;;;;17.10;10.57;;;15.30;99.90;;;;;;5074889;28;20259;-61
2021/09/12 05:52:33;;;;;;;18.80;11.20;;;15.30;99.90;;;;;;5074662;28;20673;-62
2021/09/12 05:55:00;;;;;;;17.20;10.33;;;15.30;99.90;;;;;;5074778;28;20282;-62
2021/09/12 05:57:27;;;;;;;17.50;9.87;;;15.30;99.90;;;;;;5074907;28;20251;-62
2021/09/12 05:59:55;;;;;;;16.20;9.40;;;15.30;99.90;;;;;;5074738;28;20738;-62
2021/09/12 06:02:21;;;;;;;13.53;9.30;;;15.30;99.90;;;;;;5074562;28;20731;-62
2021/09/12 06:04:48;;;;;;;14.70;8.80;;;15.30;99.90;;;;;;5074652;28;20229;-61
2021/09/12 06:07:15;;;;;;;15.30;9.03;;;15.30;99.90;;;;;;5074372;28;20263;-62
2021/09/12 06:09:42;;;;;;;15.37;8.67;;;15.30;1.00;;;;;;5074877;28;20329;-62
2021/09/12 06:12:10;;;;;;;13.73;8.83;;;15.30;1.00;;;;;;5074662;28;20255;-61
2021/09/12 06:14:37;;;;;;;14.30;9.13;;;15.30;1.00;;;;;;5074405;28;20282;-62
2021/09/12 06:17:05;;;;;;;14.63;7.73;;;15.30;99.90;;;;;;5074222;28;20258;-62
2021/09/12 06:19:32;;;;;;;12.53;8.33;;;15.30;99.90;;;;;;5074317;28;20209;-61
2021/09/12 06:21:59;;;;;;;17.17;8.70;;;15.30;99.90;;;;;;5074439;28;20255;-62
2021/09/12 06:24:26;;;;;;;15.53;9.07;;;15.30;99.90;;;;;;5074206;28;20225;-62
2021/09/12 06:26:53;;;;;;;14.80;8.07;;;15.30;99.90;;;;;;5074364;28;20225;-62
2021/09/12 06:29:19;;;;;;;10.67;8.10;;;15.30;99.90;;;;;;5074534;28;20211;-62
2021/09/12 06:31:46;;;;;;;13.80;7.80;;;15.30;99.90;;;;;;5074248;28;20278;-62
2021/09/12 06:34:15;;;;;;;12.23;8.43;;;15.40;99.90;;;;;;5073951;28;20583;-62
2021/09/12 06:36:41;;;;;;;13.03;7.77;;;15.50;99.90;;;;;;5074198;28;20266;-61
2021/09/12 06:39:08;;;;;;;16.73;8.17;;;15.60;99.90;;;;;;5074097;28;20212;-62
2021/09/12 06:41:35;;;;;;;13.47;8.13;;;15.60;99.90;;;;;;5074177;28;20230;-61
2021/09/12 06:44:01;;;;;;;10.43;6.97;;;15.70;7.50;;;;;;5073827;28;20238;-60
2021/09/12 06:46:28;;;;;;;11.53;6.90;;;15.80;99.90;;;;;;5073997;28;20550;-62
2021/09/12 06:48:54;;;;;;;10.63;6.23;;;15.80;1.00;;;;;;5073655;28;20228;-61
2021/09/12 06:51:22;;;;;;;12.27;7.30;;;15.80;1.00;;;;;;5073998;28;20213;-61
2021/09/12 06:53:49;;;;;;;12.30;7.70;;;15.80;1.00;;;;;;5073699;28;20600;-62
2021/09/12 06:56:16;;;;;;;12.83;6.77;;;15.80;1.00;;;;;;5073928;28;20209;-60
2021/09/12 06:58:43;;;;;;;10.30;6.87;;;15.80;14.00;;;;;;5073741;28;20201;-62
2021/09/12 07:01:10;;;;;;;12.80;7.40;;;15.80;99.90;;;;;;5073476;28;20219;-62
2021/09/12 07:03:36;;;;;;;16.40;7.63;;;15.80;1.00;;;;;;5070630;28;20208;-61
2021/09/12 07:06:03;;;;;;;11.33;6.90;;;15.80;99.90;;;;;;5073539;28;20554;-61
2021/09/12 07:08:31;;;;;;;13.43;6.70;;;15.90;1.00;;;;;;5073598;28;20271;-62
2021/09/12 07:10:58;;;;;;;18.27;7.63;;;16.10;99.90;;;;;;5073500;28;20617;-61
2021/09/12 07:13:24;;;;;;;14.47;6.83;;;16.20;1.00;;;;;;5073225;28;20696;-63
2021/09/12 07:15:51;;;;;;;18.00;7.47;;;16.30;99.90;;;;;;5069506;28;20208;-62
2021/09/12 07:18:18;;;;;;;18.27;7.43;;;16.40;99.90;;;;;;5073150;28;20201;-62
2021/09/12 07:20:44;;;;;;;13.93;6.67;;;16.40;97.90;;;;;;5072808;28;20205;-63
2021/09/12 07:23:11;;;;;;;18.17;6.50;;;16.50;99.90;;;;;;5072528;28;20208;-62
2021/09/12 07:25:39;;;;;;;13.33;6.10;;;16.60;99.90;;;;;;5072337;28;20282;-62
2021/09/12 07:28:06;;;;;;;10.17;6.10;;;16.50;99.90;;;;;;5072298;28;20266;-63
2021/09/12 07:30:32;;;;;;;10.77;6.50;;;16.60;1.00;;;;;;5071569;28;20232;-63
2021/09/12 07:32:59;;;;;;;11.57;6.40;;;16.60;99.90;;;;;;5072643;28;20261;-62
2021/09/12 07:35:26;;;;;;;11.80;6.13;;;16.60;1.00;;;;;;5072206;28;20233;-63
2021/09/12 07:37:52;;;;;;;9.90;5.87;;;16.70;1.00;;;;;;5072724;28;20613;-63
2021/09/12 07:40:19;;;;;;;11.77;6.00;;;16.80;99.90;;;;;;5072473;28;20254;-62
2021/09/12 07:42:48;;;;;;;11.60;5.83;;;16.90;1.00;;;;;;5072388;28;20201;-63
2021/09/12 07:45:15;;;;;;;13.00;6.17;;;16.90;99.90;;;;;;5071639;28;20302;-62
2021/09/12 07:47:42;;;;;;;9.93;6.00;;;16.90;99.90;;;;;;5072361;28;20652;-63
2021/09/12 07:50:09;;;;;;;13.43;5.30;;;16.80;1.00;;;;;;5071795;28;20254;-63
2021/09/12 07:52:36;;;;;;;11.47;5.57;;;16.90;1.00;;;;;;5072147;28;20205;-63
2021/09/12 07:55:03;;;;;;;16.10;5.77;;;16.90;1.00;;;;;;5072521;28;20260;-62
2021/09/12 07:57:30;;;;;;;12.30;6.53;;;16.70;99.90;;;;;;5071699;28;20274;-62
2021/09/12 07:59:58;;;;;;;11.37;5.50;;;16.80;1.00;;;;;;5071991;28;20255;-62
2021/09/12 08:02:24;;;;;;;10.50;5.80;;;16.80;99.90;;;;;;5072130;28;20213;-62
2021/09/12 08:04:51;;;;;;;9.97;5.60;;;16.80;99.90;;;;;;5071855;28;20224;-62
2021/09/12 08:07:18;;;;;;;10.60;5.53;;;16.90;99.90;;;;;;5071890;28;20209;-61
2021/09/12 08:09:44;;;;;;;12.23;5.77;;;17.00;99.90;;;;;;5071874;28;20205;-62
2021/09/12 08:12:11;;;;;;;11.77;5.63;;;16.90;1.00;;;;;;5071124;28;20259;-62
2021/09/12 08:14:38;;;;;;;13.23;5.87;;;16.90;99.90;;;;;;5071761;28;20225;-62
2021/09/12 08:17:06;;;;;;;13.97;5.93;;;17.10;99.90;;;;;;5071205;28;20287;-62
2021/09/12 08:19:32;;;;;;;11.73;5.10;;;17.10;99.90;;;;;;5071625;28;20612;-61
2021/09/12 08:21:59;;;;;;;11.00;4.87;;;17.20;99.90;;;;;;5071997;28;20201;-61
2021/09/12 08:24:26;;;;;;;11.33;4.60;;;17.30;99.90;;;;;;5071468;28;20267;-60
2021/09/12 08:26:53;;;;;;;9.03;4.20;;;17.40;99.90;;;;;;5071488;28;20629;-60
2021/09/12 08:29:20;;;;;;;10.93;4.00;;;17.30;99.90;;;;;;5071461;28;20774;-64
2021/09/12 08:31:46;;;;;;;9.13;3.70;;;17.40;99.90;;;;;;5071747;28;20205;-63
2021/09/12 08:34:16;;;;;;;6.77;3.00;;;17.50;99.90;;;;;;5071460;28;20282;-63
2021/09/12 08:36:43;;;;;;;9.47;3.10;;;17.60;99.90;;;;;;5071270;28;20315;-63
2021/09/12 08:39:09;;;;;;;10.20;2.87;;;17.80;99.90;;;;;;5071604;28;20349;-64
2021/09/12 08:41:37;;;;;;;6.00;2.90;;;17.90;79.40;;;;;;5071436;28;20205;-62
2021/09/12 08:44:03;;;;;;;7.27;2.70;;;17.90;1.00;;;;;;5071818;28;20275;-62
2021/09/12 08:46:30;;;;;;;9.10;3.30;;;17.90;8.90;;;;;;5071738;28;20205;-62
2021/09/12 08:48:57;;;;;;;6.43;3.07;;;18.00;50.40;;;;;;5071866;28;20236;-61
2021/09/12 08:51:25;;;;;;;6.07;2.90;;;18.00;1.00;;;;;;5071584;28;20259;-62
2021/09/12 08:53:52;;;;;;;6.50;2.93;;;18.00;1.00;;;;;;5071401;28;20232;-62
2021/09/12 08:56:18;;;;;;;4.43;2.80;;;18.10;1.00;;;;;;5072219;28;20200;-62
2021/09/12 08:58:45;;;;;;;9.63;2.97;;;18.20;1.00;;;;;;5072240;28;20620;-61
2021/09/12 09:01:12;;;;;;;6.83;2.73;;;18.30;1.00;;;;;;5072180;28;20286;-62
2021/09/12 09:03:41;;;;;;;6.07;2.53;;;18.40;1.00;;;;;;5071546;28;20625;-62
2021/09/12 09:06:15;;;;;;;5.83;2.07;;;18.50;1.00;;;;;;5071989;28;20574;-62
2021/09/12 09:08:54;;;;;;;5.63;2.60;;;18.50;1.00;;;;;;5071976;28;20233;-61
2021/09/12 09:11:29;;;;;;;4.90;2.87;;;18.50;1.00;;;;;;5071865;28;20296;-61
2021/09/12 09:13:56;;;;;;;6.60;2.90;;;18.50;1.00;;;;;;5071078;28;20261;-62
2021/09/12 09:16:27;;;;;;;7.07;3.13;;;18.50;1.00;;;;;;5071641;28;20212;-62
2021/09/12 09:19:02;;;;;;;7.60;3.10;;;18.50;1.00;;;;;;5071554;28;20247;-61
2021/09/12 09:21:30;;;;;;;7.20;3.23;;;18.60;1.00;;;;;;5071777;28;20615;-62
2021/09/12 09:24:17;;;;;;;4.40;2.80;;;18.60;1.00;;;;;;5071227;28;20225;-63
2021/09/12 09:26:46;;;;;;;4.73;2.23;;;18.70;1.00;;;;;;5071655;28;20212;-61
2021/09/12 09:29:14;;;;;;;4.60;2.03;;;18.70;1.00;;;;;;5071429;28;20220;-62
2021/09/12 09:31:42;;;;;;;4.47;2.00;;;18.70;1.00;;;;;;5071665;28;20209;-62
2021/09/12 09:34:16;;;;;;;3.40;2.00;;;18.80;1.00;;;;;;5071078;28;20282;-62
2021/09/12 09:36:43;;;;;;;4.10;2.40;;;18.90;1.00;;;;;;5071381;28;20212;-62
2021/09/12 09:39:10;;;;;;;5.53;2.30;;;18.90;1.00;;;;;;5071332;28;20632;-64
2021/09/12 09:41:39;;;;;;;4.33;2.60;;;18.60;1.00;;;;;;5071384;28;20213;-62
2021/09/12 09:44:11;;;;;;;4.77;2.67;;;18.60;1.00;;;;;;5070982;28;20283;-63
2021/09/12 09:46:39;;;;;;;6.53;3.13;;;18.60;1.00;;;;;;5071438;28;20239;-63
2021/09/12 09:49:22;;;;;;;4.37;2.93;;;18.60;1.00;;;;;;5071363;28;20648;-62
2021/09/12 09:51:51;;;;;;;4.27;2.53;;;18.40;1.00;;;;;;5069476;28;20255;-60
2021/09/12 09:54:18;;;;;;;6.47;2.83;;;18.50;1.00;;;;;;5074281;28;20276;-63
2021/09/12 09:56:48;;;;;;;5.90;2.90;;;18.60;1.00;;;;;;5074705;28;20254;-61
2021/09/12 09:59:16;;;;;;;5.17;3.30;;;18.90;1.00;;;;;;5075056;28;20661;-62
2021/09/12 10:01:43;;;;;;;6.23;3.10;;;19.00;1.00;;;;;;5074793;28;20698;-63
2021/09/12 10:04:12;;;;;;;8.30;3.03;;;19.20;1.00;;;;;;5074327;28;20651;-63
2021/09/12 10:06:40;;;;;;;5.53;2.90;;;19.40;1.00;;;;;;5074561;28;20209;-62
2021/09/12 10:09:07;;;;;;;5.57;2.60;;;19.50;1.00;;;;;;5074379;28;20857;-64
2021/09/12 10:11:34;;;;;;;4.33;2.70;;;19.40;1.00;;;;;;5070557;28;20205;-62
2021/09/12 10:14:03;;;;;;;6.00;2.90;;;19.40;1.00;;;;;;5074281;28;20311;-62
2021/09/12 10:16:32;;;;;;;7.07;2.83;;;19.50;1.00;;;;;;5074686;28;20209;-67
2021/09/12 10:18:59;;;;;;;5.93;2.47;;;19.50;1.00;;;;;;5073914;28;20197;-67
2021/09/12 10:21:27;;;;;;;4.60;2.50;;;19.70;1.00;;;;;;5073615;28;20562;-64
2021/09/12 10:24:03;;;;;;;7.37;2.83;;;19.80;1.00;;;;;;5073771;28;20233;-64
2021/09/12 10:26:33;;;;;;;5.13;2.70;;;19.80;1.00;;;;;;5074164;28;20212;-64
2021/09/12 10:29:02;;;;;;;9.80;2.30;;;19.80;1.00;;;;;;5074014;28;20225;-65
2021/09/12 10:31:38;;;;;;;7.70;2.60;;;19.80;1.00;;;;;;5073637;28;20208;-64
2021/09/12 10:34:07;;;;;;;5.83;2.40;;;20.00;1.00;;;;;;5073579;28;20224;-65
2021/09/12 10:36:34;;;;;;;4.77;2.67;;;19.90;1.00;;;;;;5073712;28;20738;-64
2021/09/12 10:39:28;;;;;;;5.23;2.77;;;19.90;1.00;;;;;;5073709;28;20575;-64
2021/09/12 10:42:17;;;;;;;8.53;3.03;;;19.80;1.00;;;;;;5073505;28;20212;-64
2021/09/12 10:44:46;;;;;;;7.53;3.30;;;19.80;1.00;;;;;;5073450;28;20607;-65
2021/09/12 10:47:14;;;;;;;6.50;3.30;;;19.80;1.00;;;;;;5074145;28;20262;-64
2021/09/12 10:49:41;;;;;;;7.60;3.27;;;19.90;1.00;;;;;;5073678;28;20221;-65
2021/09/12 10:52:10;;;;;;;4.30;2.87;;;19.90;1.00;;;;;;5073377;28;20209;-65
2021/09/12 10:55:07;;;;;;;11.07;3.97;;;19.90;1.00;;;;;;5073285;28;20228;-63
2021/09/12 10:57:36;;;;;;;5.40;2.53;;;20.10;1.00;;;;;;5073796;28;20201;-65
2021/09/12 11:00:05;;;;;;;4.43;2.70;;;20.20;1.00;;;;;;5073406;28;20240;-64
2021/09/12 11:02:33;;;;;;;5.60;2.90;;;20.10;1.00;;;;;;5073164;28;20575;-67
2021/09/12 11:05:00;;;;;;;4.93;2.83;;;20.20;1.00;;;;;;5072746;28;20294;-67
2021/09/12 11:07:27;;;;;;;13.80;3.83;;;20.40;1.00;;;;;;5073058;28;20201;-67
2021/09/12 11:09:53;;;;;;;7.13;3.20;;;20.60;1.00;;;;;;5073143;28;20239;-66
2021/09/12 11:12:28;;;;;;;7.40;3.43;;;20.50;1.00;;;;;;5072930;28;20201;-64
2021/09/12 11:14:55;;;;;;;3.87;2.93;;;20.60;1.00;;;;;;5073017;28;20311;-67
2021/09/12 11:17:23;;;;;;;5.97;3.00;;;20.60;1.00;;;;;;5073068;28;20209;-65
2021/09/12 11:19:53;;;;;;;8.63;2.40;;;20.50;1.00;;;;;;5072914;28;20201;-65
2021/09/12 11:22:20;;;;;;;7.93;3.20;;;20.60;1.00;;;;;;5073060;28;20216;-64
2021/09/12 11:24:47;;;;;;;6.67;2.90;;;20.40;1.00;;;;;;5072809;28;20237;-64
2021/09/12 11:27:14;;;;;;;4.60;2.63;;;20.40;1.00;;;;;;5072859;28;20630;-64
2021/09/12 11:29:41;;;;;;;6.23;3.10;;;20.50;1.00;;;;;;5072880;28;20229;-64
2021/09/12 11:32:10;;;;;;;5.43;2.90;;;20.30;1.00;;;;;;5072446;28;20209;-64
2021/09/12 11:34:41;;;;;;;5.27;2.80;;;20.20;1.00;;;;;;5072651;28;20578;-65
2021/09/12 11:37:09;;;;;;;6.37;3.17;;;20.20;1.00;;;;;;5072896;28;20581;-64
2021/09/12 11:39:37;;;;;;;4.93;2.70;;;20.20;1.00;;;;;;5072850;28;20205;-65
2021/09/12 11:42:06;;;;;;;8.00;3.30;;;20.20;1.00;;;;;;5072299;28;20216;-65
2021/09/12 11:44:34;;;;;;;4.07;2.50;;;20.30;1.00;;;;;;5072184;28;20745;-65
2021/09/12 11:47:03;;;;;;;6.77;3.53;;;20.50;1.00;;;;;;5072184;28;20852;-68
2021/09/12 11:49:30;;;;;;;3.97;2.63;;;20.50;1.00;;;;;;5072342;28;20319;-68
2021/09/12 11:52:10;;;;;;;3.80;2.47;;;20.50;1.00;;;;;;5072043;28;20205;-69
2021/09/12 11:54:38;;;;;;;7.77;2.70;;;20.60;1.00;;;;;;5053861;28;20252;-64
2021/09/12 11:57:07;;;;;;;10.50;3.03;;;20.60;1.00;;;;;;5071908;28;20209;-64
2021/09/12 11:59:36;;;;;;;4.70;2.70;;;20.40;1.00;;;;;;5072104;28;20737;-64
2021/09/12 12:02:04;;;;;;;5.73;2.80;;;20.40;1.00;;;;;;5071709;28;20640;-64
2021/09/12 12:04:33;;;;;;;3.83;2.60;;;20.50;1.00;;;;;;5071894;28;20232;-64
2021/09/12 12:07:01;;;;;;;5.83;2.57;;;20.50;1.00;;;;;;5071863;28;20205;-64
2021/09/12 12:09:39;;;;;;;5.93;2.30;;;20.70;1.00;;;;;;5071950;28;20274;-64
2021/09/12 12:12:07;;;;;;;4.90;2.50;;;20.80;1.00;;;;;;5072022;28;20270;-64
2021/09/12 12:14:43;;;;;;;5.57;2.47;;;20.90;1.00;;;;;;5071352;28;20721;-64
2021/09/12 12:17:15;;;;;;;2.60;2.27;;;20.70;99.90;;;;;;5072050;28;20208;-64
2021/09/12 12:19:41;;;;;;;5.60;2.60;;;20.90;99.90;;;;;;5072129;28;20211;-63
2021/09/12 12:22:10;;;;;;;4.77;2.53;;;20.90;99.90;;;;;;5071772;28;20262;-63
2021/09/12 12:24:38;;;;;;;6.47;2.27;;;21.00;99.90;;;;;;5071567;28;20298;-63
2021/09/12 12:27:09;;;;;;;8.53;2.67;;;21.00;99.90;;;;;;5071959;28;20263;-63
2021/09/12 12:29:37;;;;;;;3.10;2.20;;;21.20;99.90;;;;;;5072198;28;20319;-64
2021/09/12 12:32:06;;;;;;;3.73;2.37;;;21.20;99.90;;;;;;5071597;28;20201;-64
2021/09/12 12:34:40;;;;;;;3.93;2.30;;;21.20;99.90;;;;;;5071467;28;20229;-64
2021/09/12 12:37:09;;;;;;;5.57;2.10;;;21.10;99.90;;;;;;5071744;28;20215;-63
2021/09/12 12:39:37;;;;;;;5.27;1.80;;;21.30;99.90;;;;;;5071731;28;20208;-64
2021/09/12 12:42:04;;;;;;;3.53;2.00;;;21.60;99.90;;;;;;5071818;28;20209;-65
2021/09/12 12:44:40;;;;;;;4.10;2.03;;;21.60;99.90;;;;;;5071712;28;20229;-65